createdAt,value
2019-03-09T00:01:20.075Z,7.40
2019-03-09T00:03:49.335Z,7.40
2019-03-09T00:06:18.982Z,7.40
2019-03-09T00:08:48.393Z,7.40
2019-03-09T00:11:17.575Z,7.50
2019-03-09T00:13:46.913Z,7.50
2019-03-09T00:16:16.217Z,7.50
2019-03-09T00:18:45.431Z,7.50
2019-03-09T00:21:14.643Z,7.50
2019-03-09T00:23:57.953Z,7.40
2019-03-09T00:26:49.567Z,7.40
2019-03-09T00:29:41.372Z,7.40
2019-03-09T00:32:13.880Z,7.40
2019-03-09T00:34:43.461Z,7.40
2019-03-09T00:37:12.831Z,7.40
2019-03-09T00:39:42.056Z,7.40
2019-03-09T00:42:11.325Z,7.50
2019-03-09T00:44:40.713Z,7.50
2019-03-09T00:47:10.182Z,7.50
2019-03-09T00:49:39.360Z,7.50
2019-03-09T00:52:08.760Z,7.40
2019-03-09T00:54:38.016Z,7.40
2019-03-09T00:57:07.278Z,7.50
2019-03-09T00:59:36.600Z,7.50
2019-03-09T01:02:05.793Z,7.50
2019-03-09T01:04:35.017Z,7.50
2019-03-09T01:07:04.444Z,7.50
2019-03-09T01:09:33.702Z,7.50
2019-03-09T01:12:02.932Z,7.50
2019-03-09T01:14:33.806Z,7.50
2019-03-09T01:17:03.072Z,7.50
2019-03-09T01:19:32.249Z,7.50
2019-03-09T01:22:01.581Z,7.50
2019-03-09T01:24:31.012Z,7.60
2019-03-09T01:27:00.275Z,7.50
2019-03-09T01:29:29.553Z,7.50
2019-03-09T01:31:58.770Z,7.60
2019-03-09T01:34:28.050Z,7.60
2019-03-09T01:36:57.351Z,7.60
2019-03-09T01:39:26.630Z,7.60
2019-03-09T01:41:55.825Z,7.60
2019-03-09T01:44:25.055Z,7.70
2019-03-09T01:46:54.267Z,7.70
2019-03-09T01:49:23.530Z,7.70
2019-03-09T01:51:53.041Z,7.80
2019-03-09T01:54:22.213Z,7.80
2019-03-09T01:56:51.541Z,7.80
2019-03-09T01:59:20.778Z,7.80
2019-03-09T02:01:49.988Z,7.80
2019-03-09T02:04:19.256Z,7.90
2019-03-09T02:06:49.891Z,7.90
2019-03-09T02:09:19.243Z,7.90
2019-03-09T02:11:48.525Z,7.90
2019-03-09T02:14:17.799Z,8.00
2019-03-09T02:16:46.990Z,8.00
2019-03-09T02:19:16.236Z,8.00
2019-03-09T02:21:45.516Z,8.00
2019-03-09T02:24:14.715Z,8.00
2019-03-09T02:26:43.981Z,8.10
2019-03-09T02:29:13.234Z,8.10
2019-03-09T02:31:42.463Z,8.10
2019-03-09T02:34:11.683Z,8.10
2019-03-09T02:36:40.982Z,8.10
2019-03-09T02:39:21.164Z,8.20
2019-03-09T02:41:50.652Z,8.20
2019-03-09T02:44:19.850Z,8.20
2019-03-09T02:46:49.112Z,8.20
2019-03-09T02:49:18.426Z,8.20
2019-03-09T02:51:47.671Z,8.20
2019-03-09T02:54:16.893Z,8.20
2019-03-09T02:56:46.259Z,8.20
2019-03-09T02:59:15.472Z,8.30
2019-03-09T03:02:03.828Z,8.30
2019-03-09T03:04:33.104Z,8.30
2019-03-09T03:07:02.463Z,8.30
2019-03-09T03:09:33.710Z,8.30
2019-03-09T03:12:02.730Z,8.40
2019-03-09T03:14:31.928Z,8.40
2019-03-09T03:17:01.139Z,8.40
2019-03-09T03:19:30.322Z,8.40
2019-03-09T03:22:01.511Z,8.50
2019-03-09T03:24:30.931Z,8.50
2019-03-09T03:27:00.326Z,8.50
2019-03-09T03:29:29.533Z,8.60
2019-03-09T03:31:58.818Z,8.60
2019-03-09T03:34:28.058Z,8.60
2019-03-09T03:36:57.259Z,8.60
2019-03-09T03:39:26.518Z,8.70
2019-03-09T03:41:55.779Z,8.70
2019-03-09T03:44:24.991Z,8.80
2019-03-09T03:46:54.346Z,8.80
2019-03-09T03:49:25.219Z,8.80
2019-03-09T03:51:54.489Z,8.80
2019-03-09T03:54:23.733Z,8.80
2019-03-09T03:56:53.017Z,8.70
2019-03-09T03:59:22.288Z,8.70
2019-03-09T04:01:51.600Z,8.80
2019-03-09T04:04:20.865Z,8.80
2019-03-09T04:06:50.764Z,8.80
2019-03-09T04:09:20.185Z,8.80
2019-03-09T04:11:49.384Z,8.70
2019-03-09T04:14:18.645Z,8.70
2019-03-09T04:16:48.239Z,8.80
2019-03-09T04:19:17.507Z,8.80
2019-03-09T04:21:48.393Z,8.80
2019-03-09T04:24:17.604Z,8.80
2019-03-09T04:26:46.782Z,8.70
2019-03-09T04:29:16.055Z,8.70
2019-03-09T04:31:45.411Z,8.60
2019-03-09T04:34:16.588Z,8.60
2019-03-09T04:36:45.953Z,8.50
2019-03-09T04:39:15.189Z,8.50
2019-03-09T04:41:44.567Z,8.40
2019-03-09T04:44:13.815Z,8.40
2019-03-09T04:46:43.037Z,8.40
2019-03-09T04:49:12.331Z,8.30
2019-03-09T04:51:41.615Z,8.30
2019-03-09T04:54:10.835Z,8.30
2019-03-09T04:56:40.039Z,8.30
2019-03-09T04:59:09.339Z,8.30
2019-03-09T05:01:38.637Z,8.30
2019-03-09T05:04:51.031Z,8.30
2019-03-09T05:07:37.544Z,8.30
2019-03-09T05:10:28.053Z,8.30
2019-03-09T05:13:09.801Z,8.30
2019-03-09T05:15:39.066Z,8.30
2019-03-09T05:18:08.264Z,8.20
2019-03-09T05:20:37.477Z,8.20
2019-03-09T05:23:06.763Z,8.20
2019-03-09T05:25:35.949Z,8.20
2019-03-09T05:28:05.294Z,8.20
2019-03-09T05:30:44.918Z,8.20
2019-03-09T05:33:14.147Z,8.20
2019-03-09T05:35:43.365Z,8.20
2019-03-09T05:38:13.577Z,8.20
2019-03-09T05:40:42.971Z,8.20
2019-03-09T05:43:12.310Z,8.30
2019-03-09T05:45:41.594Z,8.30
2019-03-09T05:48:10.848Z,8.30
2019-03-09T05:50:59.146Z,8.30
2019-03-09T05:53:28.438Z,8.30
2019-03-09T05:55:57.656Z,8.30
2019-03-09T05:58:26.837Z,8.30
2019-03-09T06:00:56.100Z,8.40
2019-03-09T06:03:29.945Z,8.40
2019-03-09T06:06:18.850Z,8.40
2019-03-09T06:08:51.583Z,8.40
2019-03-09T06:11:20.553Z,8.40
2019-03-09T06:13:49.859Z,8.40
2019-03-09T06:16:19.033Z,8.50
2019-03-09T06:18:48.240Z,8.50
2019-03-09T06:21:17.557Z,8.60
2019-03-09T06:23:46.754Z,8.60
2019-03-09T06:26:17.903Z,8.60
2019-03-09T06:28:47.087Z,8.60
2019-03-09T06:31:16.310Z,8.60
2019-03-09T06:33:47.605Z,8.60
2019-03-09T06:36:55.666Z,8.60
2019-03-09T06:39:27.771Z,8.60
2019-03-09T06:42:34.380Z,8.70
2019-03-09T06:45:03.644Z,8.70
2019-03-09T06:47:32.859Z,8.70
2019-03-09T06:50:02.158Z,8.70
2019-03-09T06:52:31.513Z,8.70
2019-03-09T06:55:00.995Z,8.70
2019-03-09T06:57:30.278Z,8.70
2019-03-09T06:59:59.515Z,8.70
2019-03-09T07:02:28.769Z,8.80
2019-03-09T07:04:58.072Z,8.80
2019-03-09T07:07:27.388Z,8.90
2019-03-09T07:09:56.680Z,8.90
2019-03-09T07:12:25.886Z,8.90
2019-03-09T07:15:22.998Z,9.00
2019-03-09T07:18:01.038Z,9.00
2019-03-09T07:20:31.741Z,9.10
2019-03-09T07:23:00.972Z,9.10
2019-03-09T07:25:30.275Z,9.10
2019-03-09T07:28:01.498Z,9.20
2019-03-09T07:30:30.810Z,9.30
2019-03-09T07:33:00.216Z,9.30
2019-03-09T07:35:29.516Z,9.30
2019-03-09T07:37:58.704Z,9.30
2019-03-09T07:40:27.950Z,9.30
2019-03-09T07:42:57.177Z,9.30
2019-03-09T07:45:26.474Z,9.40
2019-03-09T07:47:55.693Z,9.40
2019-03-09T07:50:24.963Z,9.40
2019-03-09T07:52:54.172Z,9.50
2019-03-09T07:55:23.477Z,9.50
2019-03-09T07:57:55.959Z,9.50
2019-03-09T08:00:25.245Z,9.50
2019-03-09T08:02:54.704Z,9.50
2019-03-09T08:05:24.106Z,9.50
2019-03-09T08:07:53.469Z,9.50
2019-03-09T08:10:22.870Z,9.60
2019-03-09T08:12:52.179Z,9.70
2019-03-09T08:15:23.570Z,9.70
2019-03-09T08:17:52.612Z,9.70
2019-03-09T08:20:22.013Z,9.70
2019-03-09T08:22:51.219Z,9.70
2019-03-09T08:25:23.651Z,9.70
2019-03-09T08:27:52.936Z,9.80
2019-03-09T08:30:23.066Z,9.80
2019-03-09T08:32:52.354Z,9.80
2019-03-09T08:35:21.955Z,9.90
2019-03-09T08:37:52.248Z,9.90
2019-03-09T08:40:21.930Z,9.90
2019-03-09T08:42:52.399Z,10.00
2019-03-09T08:45:22.932Z,10.00
2019-03-09T08:47:53.099Z,10.00
2019-03-09T08:50:23.009Z,9.90
2019-03-09T08:52:54.699Z,9.90
2019-03-09T08:55:23.213Z,10.00
2019-03-09T08:57:52.506Z,10.10
2019-03-09T09:00:24.193Z,10.20
2019-03-09T09:02:53.700Z,10.30
2019-03-09T09:05:22.901Z,10.20
2019-03-09T09:07:52.187Z,10.30
2019-03-09T09:10:21.588Z,10.30
2019-03-09T09:12:51.049Z,10.30
2019-03-09T09:15:20.349Z,10.20
2019-03-09T09:17:49.605Z,10.20
2019-03-09T09:20:20.031Z,10.20
2019-03-09T09:22:51.068Z,10.20
2019-03-09T09:25:20.513Z,10.20
2019-03-09T09:27:51.784Z,10.30
2019-03-09T09:30:22.643Z,10.40
2019-03-09T09:32:52.041Z,10.50
2019-03-09T09:35:21.387Z,10.50
2019-03-09T09:37:50.665Z,10.70
2019-03-09T09:40:41.477Z,10.80
2019-03-09T09:43:10.801Z,11.10
2019-03-09T09:45:40.109Z,11.20
2019-03-09T09:48:10.673Z,11.10
2019-03-09T09:50:39.973Z,11.20
2019-03-09T09:53:09.401Z,11.20
2019-03-09T09:55:38.652Z,11.20
2019-03-09T09:58:07.875Z,11.10
2019-03-09T10:00:37.272Z,11.10
2019-03-09T10:03:06.596Z,11.10
2019-03-09T10:05:35.792Z,11.10
2019-03-09T10:08:05.002Z,11.20
2019-03-09T10:10:34.328Z,11.20
2019-03-09T10:13:03.584Z,11.20
2019-03-09T10:15:32.808Z,11.20
2019-03-09T10:18:02.124Z,11.30
2019-03-09T10:20:31.322Z,11.40
2019-03-09T10:23:04.861Z,11.40
2019-03-09T10:25:34.444Z,11.50
2019-03-09T10:28:03.662Z,11.50
2019-03-09T10:30:32.999Z,11.40
2019-03-09T10:33:02.230Z,11.40
2019-03-09T10:35:31.453Z,11.50
2019-03-09T10:38:00.679Z,11.60
2019-03-09T10:40:29.920Z,11.50
2019-03-09T10:42:59.119Z,11.50
2019-03-09T10:45:28.386Z,11.60
2019-03-09T10:47:58.958Z,11.80
2019-03-09T10:50:28.159Z,11.80
2019-03-09T10:52:58.932Z,11.90
2019-03-09T10:55:28.216Z,11.90
2019-03-09T10:57:57.413Z,12.00
2019-03-09T11:00:29.223Z,11.90
2019-03-09T11:02:58.517Z,12.10
2019-03-09T11:05:27.714Z,12.00
2019-03-09T11:07:57.101Z,12.20
2019-03-09T11:10:26.440Z,12.30
2019-03-09T11:12:55.795Z,12.50
2019-03-09T11:15:24.992Z,12.60
2019-03-09T11:17:54.450Z,12.80
2019-03-09T11:20:23.786Z,12.90
2019-03-09T11:22:53.095Z,13.00
2019-03-09T11:25:22.384Z,13.20
2019-03-09T11:27:51.562Z,13.20
2019-03-09T11:30:23.096Z,13.30
2019-03-09T11:32:52.396Z,13.50
2019-03-09T11:35:21.628Z,13.60
2019-03-09T11:37:50.877Z,13.60
2019-03-09T11:40:20.220Z,13.20
2019-03-09T11:42:49.545Z,13.30
2019-03-09T11:45:18.954Z,13.10
2019-03-09T11:47:48.256Z,13.00
2019-03-09T11:50:17.567Z,13.00
2019-03-09T11:52:46.929Z,13.20
2019-03-09T11:55:16.335Z,13.30
2019-03-09T11:57:45.633Z,13.40
2019-03-09T12:00:18.608Z,13.40
2019-03-09T12:02:47.850Z,13.30
2019-03-09T12:05:17.029Z,13.10
2019-03-09T12:07:46.329Z,12.80
2019-03-09T12:10:17.613Z,12.70
2019-03-09T12:12:46.826Z,12.70
2019-03-09T12:15:16.219Z,13.00
2019-03-09T12:17:45.468Z,13.30
2019-03-09T12:20:16.057Z,13.70
2019-03-09T12:22:45.365Z,13.80
2019-03-09T12:25:14.874Z,13.90
2019-03-09T12:27:44.109Z,13.70
2019-03-09T12:30:14.785Z,13.30
2019-03-09T12:32:45.780Z,13.10
2019-03-09T12:35:15.589Z,12.60
2019-03-09T12:37:44.905Z,12.30
2019-03-09T12:40:15.435Z,12.10
2019-03-09T12:42:44.673Z,12.00
2019-03-09T12:45:14.359Z,12.00
2019-03-09T12:47:43.648Z,11.90
2019-03-09T12:50:15.551Z,12.00
2019-03-09T12:52:44.750Z,12.20
2019-03-09T12:55:14.434Z,12.30
2019-03-09T12:57:43.764Z,12.20
2019-03-09T13:00:15.116Z,12.30
2019-03-09T13:02:44.392Z,12.30
2019-03-09T13:05:13.996Z,12.20
2019-03-09T13:07:43.247Z,12.20
2019-03-09T13:10:13.107Z,12.30
2019-03-09T13:12:42.327Z,12.40
2019-03-09T13:15:12.254Z,12.30
2019-03-09T13:17:43.667Z,12.20
2019-03-09T13:20:12.824Z,12.10
2019-03-09T13:22:42.114Z,11.90
2019-03-09T13:25:11.779Z,11.80
2019-03-09T13:27:41.018Z,11.70
2019-03-09T13:30:13.037Z,11.70
2019-03-09T13:32:42.308Z,11.70
2019-03-09T13:35:12.022Z,11.70
2019-03-09T13:37:41.352Z,12.00
2019-03-09T13:40:10.895Z,12.10
2019-03-09T13:42:40.117Z,12.20
2019-03-09T13:45:13.616Z,12.10
2019-03-09T13:47:45.996Z,12.20
2019-03-09T13:50:17.409Z,12.30
2019-03-09T13:52:46.397Z,12.30
2019-03-09T13:55:15.777Z,12.30
2019-03-09T13:58:04.174Z,11.80
2019-03-09T14:00:40.464Z,11.30
2019-03-09T14:03:04.502Z,11.00
2019-03-09T14:05:33.925Z,10.60
2019-03-09T14:08:03.233Z,10.40
2019-03-09T14:10:32.536Z,10.40
2019-03-09T14:13:01.807Z,10.50
2019-03-09T14:15:31.051Z,10.60
2019-03-09T14:18:00.265Z,10.70
2019-03-09T14:20:29.592Z,10.70
2019-03-09T14:22:58.823Z,10.60
2019-03-09T14:25:28.092Z,10.50
2019-03-09T14:27:57.391Z,10.40
2019-03-09T14:30:26.642Z,10.30
2019-03-09T14:32:55.834Z,10.30
2019-03-09T14:35:25.027Z,10.20
2019-03-09T14:37:54.358Z,10.20
2019-03-09T14:40:26.450Z,10.10
2019-03-09T14:42:55.776Z,9.90
2019-03-09T14:45:25.153Z,8.10
2019-03-09T14:47:54.446Z,7.10
2019-03-09T14:50:23.710Z,6.70
2019-03-09T14:52:52.988Z,6.50
2019-03-09T14:55:22.215Z,6.80
2019-03-09T14:57:51.401Z,7.00
2019-03-09T15:00:21.584Z,7.30
2019-03-09T15:02:50.889Z,7.50
2019-03-09T15:05:20.131Z,7.80
2019-03-09T15:07:51.446Z,8.10
2019-03-09T15:10:20.852Z,8.40
2019-03-09T15:12:50.159Z,8.70
2019-03-09T15:15:19.700Z,8.80
2019-03-09T15:17:49.021Z,9.00
2019-03-09T15:20:18.564Z,9.00
2019-03-09T15:22:47.797Z,8.60
2019-03-09T15:25:17.099Z,8.40
2019-03-09T15:27:46.311Z,8.20
2019-03-09T15:30:15.763Z,8.20
2019-03-09T15:33:04.189Z,8.30
2019-03-09T15:35:33.477Z,8.30
2019-03-09T15:38:02.672Z,8.30
2019-03-09T15:40:31.943Z,8.20
2019-03-09T15:43:01.296Z,8.30
2019-03-09T15:45:30.627Z,8.40
2019-03-09T15:47:59.933Z,8.60
2019-03-09T15:50:29.282Z,8.60
2019-03-09T15:52:58.576Z,8.80
2019-03-09T15:55:27.871Z,8.90
2019-03-09T15:57:57.112Z,8.90
2019-03-09T16:00:26.362Z,9.00
2019-03-09T16:02:55.685Z,9.00
2019-03-09T16:05:25.081Z,9.00
2019-03-09T16:07:54.353Z,9.10
2019-03-09T16:10:23.680Z,9.20
2019-03-09T16:12:52.912Z,9.20
2019-03-09T16:15:22.198Z,9.20
2019-03-09T16:17:51.376Z,9.10
2019-03-09T16:20:21.539Z,9.10
2019-03-09T16:22:50.751Z,9.10
2019-03-09T16:25:20.367Z,9.00
2019-03-09T16:27:49.598Z,9.00
2019-03-09T16:30:19.230Z,9.00
2019-03-09T16:32:48.457Z,8.90
2019-03-09T16:35:17.922Z,8.90
2019-03-09T16:37:47.182Z,8.90
2019-03-09T16:40:16.549Z,8.80
2019-03-09T16:42:46.164Z,8.80
2019-03-09T16:45:15.494Z,8.80
2019-03-09T16:47:44.835Z,8.80
2019-03-09T16:50:14.655Z,8.70
2019-03-09T16:52:44.309Z,8.80
2019-03-09T16:55:14.090Z,8.70
2019-03-09T16:57:43.406Z,8.70
2019-03-09T17:00:17.539Z,8.70
2019-03-09T17:02:46.824Z,8.70
2019-03-09T17:05:16.241Z,8.60
2019-03-09T17:07:45.604Z,8.60
2019-03-09T17:10:15.006Z,8.60
2019-03-09T17:12:44.384Z,8.60
2019-03-09T17:15:14.563Z,8.60
2019-03-09T17:17:43.837Z,8.60
2019-03-09T17:20:13.479Z,8.50
2019-03-09T17:22:43.000Z,8.50
2019-03-09T17:25:12.388Z,8.50
2019-03-09T17:27:41.721Z,8.50
2019-03-09T17:30:13.490Z,8.50
2019-03-09T17:32:42.878Z,8.40
2019-03-09T17:35:12.250Z,8.40
2019-03-09T17:37:41.582Z,8.30
2019-03-09T17:40:11.934Z,8.30
2019-03-09T17:42:41.166Z,8.30
2019-03-09T17:45:13.879Z,8.30
2019-03-09T17:47:43.364Z,8.30
2019-03-09T17:50:12.943Z,8.20
2019-03-09T17:52:42.163Z,8.20
2019-03-09T17:55:11.335Z,8.10
2019-03-09T17:57:40.698Z,8.10
2019-03-09T18:00:13.415Z,8.20
2019-03-09T18:02:42.678Z,8.10
2019-03-09T18:05:11.915Z,8.20
2019-03-09T18:07:41.195Z,8.10
2019-03-09T18:10:23.287Z,8.10
2019-03-09T18:12:52.493Z,8.10
2019-03-09T18:15:21.703Z,8.00
2019-03-09T18:17:50.969Z,8.00
2019-03-09T18:20:20.199Z,7.90
2019-03-09T18:22:49.715Z,7.90
2019-03-09T18:25:19.353Z,7.80
2019-03-09T18:27:48.687Z,7.80
2019-03-09T18:30:18.020Z,7.80
2019-03-09T18:32:47.375Z,7.80
2019-03-09T18:35:16.616Z,7.70
2019-03-09T18:37:45.920Z,7.70
2019-03-09T18:40:16.063Z,7.70
2019-03-09T18:42:45.441Z,7.70
2019-03-09T18:45:15.839Z,7.60
2019-03-09T18:47:45.800Z,7.60
2019-03-09T18:50:15.679Z,7.50
2019-03-09T18:52:45.227Z,7.50
2019-03-09T18:55:14.665Z,7.40
2019-03-09T18:57:44.007Z,7.40
2019-03-09T19:00:15.482Z,7.30
2019-03-09T19:02:44.804Z,7.30
2019-03-09T19:05:14.114Z,7.30
2019-03-09T19:07:43.335Z,7.30
2019-03-09T19:10:13.470Z,7.30
2019-03-09T19:12:42.844Z,7.30
2019-03-09T19:15:12.992Z,7.30
2019-03-09T19:17:42.308Z,7.30
2019-03-09T19:20:12.632Z,7.20
2019-03-09T19:22:42.046Z,7.20
2019-03-09T19:25:12.183Z,7.20
2019-03-09T19:27:43.881Z,7.30
2019-03-09T19:30:14.847Z,7.30
2019-03-09T19:32:44.221Z,7.30
2019-03-09T19:35:13.601Z,7.40
2019-03-09T19:37:42.876Z,7.30
2019-03-09T19:40:13.404Z,7.30
2019-03-09T19:42:42.694Z,7.30
2019-03-09T19:45:12.943Z,7.30
2019-03-09T19:47:42.439Z,7.30
2019-03-09T19:50:14.086Z,7.30
2019-03-09T19:52:43.328Z,7.40
2019-03-09T19:55:13.003Z,7.40
2019-03-09T19:57:42.281Z,7.40
2019-03-09T20:00:15.566Z,7.50
2019-03-09T20:02:44.841Z,7.50
2019-03-09T20:05:14.377Z,7.50
2019-03-09T20:07:43.650Z,7.60
2019-03-09T20:10:13.586Z,7.60
2019-03-09T20:12:42.903Z,7.60
2019-03-09T20:15:13.669Z,7.60
2019-03-09T20:17:45.742Z,7.60
2019-03-09T20:20:14.788Z,7.60
2019-03-09T20:22:44.228Z,7.60
2019-03-09T20:25:13.468Z,7.50
2019-03-09T20:27:42.755Z,7.60
2019-03-09T20:30:12.286Z,7.60
2019-03-09T20:32:41.515Z,7.60
2019-03-09T20:35:10.776Z,7.60
2019-03-09T20:37:40.131Z,7.60
2019-03-09T20:40:10.264Z,7.70
2019-03-09T20:42:39.483Z,7.70
2019-03-09T20:45:10.817Z,7.70
2019-03-09T20:47:41.997Z,7.80
2019-03-09T20:50:13.155Z,7.80
2019-03-09T20:52:42.449Z,7.80
2019-03-09T20:55:13.182Z,7.70
2019-03-09T20:57:42.633Z,7.70
2019-03-09T21:00:16.694Z,7.80
2019-03-09T21:02:45.961Z,7.80
2019-03-09T21:05:15.239Z,7.80
2019-03-09T21:07:44.646Z,7.70
2019-03-09T21:10:15.274Z,7.70
2019-03-09T21:13:10.027Z,7.80
2019-03-09T21:15:39.389Z,7.80
2019-03-09T21:18:08.695Z,7.80
2019-03-09T21:20:38.129Z,7.80
2019-03-09T21:23:07.506Z,7.80
2019-03-09T21:25:36.900Z,7.90
2019-03-09T21:28:06.279Z,7.90
2019-03-09T21:30:35.606Z,7.90
2019-03-09T21:33:05.098Z,7.90
2019-03-09T21:35:34.313Z,7.90
2019-03-09T21:38:03.608Z,7.90
2019-03-09T21:40:32.986Z,7.90
2019-03-09T21:43:02.371Z,8.00
2019-03-09T21:45:31.588Z,8.10
2019-03-09T21:48:00.878Z,8.10
2019-03-09T21:50:30.340Z,8.20
2019-03-09T21:52:59.721Z,8.10
2019-03-09T21:55:29.058Z,8.10
2019-03-09T21:57:58.320Z,8.10
2019-03-09T22:00:28.087Z,8.00
2019-03-09T22:02:57.547Z,8.00
2019-03-09T22:05:26.758Z,7.90
2019-03-09T22:07:56.120Z,7.90
2019-03-09T22:10:25.664Z,7.90
2019-03-09T22:12:55.050Z,7.90
2019-03-09T22:15:24.430Z,7.80
2019-03-09T22:17:53.908Z,7.90
2019-03-09T22:20:23.380Z,7.80
2019-03-09T22:22:52.559Z,7.90
2019-03-09T22:25:21.821Z,7.90
2019-03-09T22:27:51.120Z,8.00
2019-03-09T22:30:20.309Z,8.00
2019-03-09T22:32:49.544Z,8.10
2019-03-09T22:35:18.806Z,8.10
2019-03-09T22:37:48.083Z,8.10
2019-03-09T22:40:17.377Z,8.10
2019-03-09T22:42:46.653Z,8.10
2019-03-09T22:45:15.979Z,8.00
2019-03-09T22:47:45.588Z,8.00
2019-03-09T22:50:15.582Z,7.90
2019-03-09T22:52:44.957Z,7.90
2019-03-09T22:55:14.178Z,8.00
2019-03-09T22:57:43.454Z,8.00
2019-03-09T23:00:15.184Z,7.90
2019-03-09T23:02:47.355Z,7.90
2019-03-09T23:05:16.737Z,7.90
2019-03-09T23:07:46.102Z,7.80
2019-03-09T23:10:16.302Z,7.80
2019-03-09T23:12:45.661Z,7.70
2019-03-09T23:15:15.847Z,7.70
2019-03-09T23:17:45.159Z,7.70
2019-03-09T23:20:15.229Z,7.70
2019-03-09T23:22:44.458Z,7.70
2019-03-09T23:25:14.521Z,7.70
2019-03-09T23:27:43.819Z,7.70
2019-03-09T23:30:15.446Z,7.70
2019-03-09T23:32:44.861Z,7.70
2019-03-09T23:35:14.456Z,7.70
2019-03-09T23:37:43.753Z,7.70
2019-03-09T23:40:13.496Z,7.60
2019-03-09T23:42:42.834Z,7.70
2019-03-09T23:45:13.819Z,7.60
2019-03-09T23:47:43.061Z,7.60
2019-03-09T23:50:13.554Z,7.50
2019-03-09T23:52:42.791Z,7.50
2019-03-09T23:55:21.153Z,7.50
2019-03-09T23:57:43.506Z,7.50
